createdAt,value
2018-12-18T00:00:19.763Z,0.70
2018-12-18T00:02:50.014Z,0.70
2018-12-18T00:05:24.050Z,0.60
2018-12-18T00:07:51.502Z,0.60
2018-12-18T00:10:18.722Z,0.60
2018-12-18T00:12:46.072Z,0.60
2018-12-18T00:15:13.281Z,0.60
2018-12-18T00:17:40.493Z,0.60
2018-12-18T00:20:07.944Z,0.60
2018-12-18T00:22:35.148Z,0.60
2018-12-18T00:25:02.497Z,0.60
2018-12-18T00:27:29.748Z,0.60
2018-12-18T00:29:57.016Z,0.60
2018-12-18T00:32:24.243Z,0.60
2018-12-18T00:34:51.516Z,0.60
2018-12-18T00:37:18.708Z,0.60
2018-12-18T00:39:46.020Z,0.60
2018-12-18T00:42:13.352Z,0.50
2018-12-18T00:44:40.662Z,0.50
2018-12-18T00:47:07.892Z,0.50
2018-12-18T00:49:35.111Z,0.50
2018-12-18T00:52:02.313Z,0.60
2018-12-18T00:54:29.487Z,0.60
2018-12-18T00:56:56.742Z,0.60
2018-12-18T00:59:23.941Z,0.60
2018-12-18T01:01:57.113Z,0.60
2018-12-18T01:04:24.321Z,0.60
2018-12-18T01:06:51.562Z,0.60
2018-12-18T01:09:18.916Z,0.60
2018-12-18T01:11:46.558Z,0.60
2018-12-18T01:14:13.796Z,0.60
2018-12-18T01:16:41.266Z,0.60
2018-12-18T01:19:08.514Z,0.60
2018-12-18T01:21:35.761Z,0.60
2018-12-18T01:24:03.121Z,0.60
2018-12-18T01:26:30.328Z,0.60
2018-12-18T01:28:57.531Z,0.60
2018-12-18T01:31:24.794Z,0.60
2018-12-18T01:33:52.026Z,0.60
2018-12-18T01:36:19.225Z,0.60
2018-12-18T01:38:46.464Z,0.60
2018-12-18T01:41:13.689Z,0.60
2018-12-18T01:43:40.892Z,0.60
2018-12-18T01:46:08.107Z,0.60
2018-12-18T01:48:35.331Z,0.50
2018-12-18T01:51:02.548Z,0.50
2018-12-18T01:53:29.801Z,0.40
2018-12-18T01:55:57.186Z,0.40
2018-12-18T01:58:24.492Z,0.40
2018-12-18T02:00:51.795Z,0.30
2018-12-18T02:03:18.997Z,0.30
2018-12-18T02:05:46.345Z,0.20
2018-12-18T02:08:13.568Z,0.10
2018-12-18T02:10:40.868Z,0.00
2018-12-18T02:13:08.242Z,-0.10
2018-12-18T02:15:35.493Z,-0.20
2018-12-18T02:18:02.689Z,-0.30
2018-12-18T02:20:29.911Z,-0.40
2018-12-18T02:22:57.131Z,-0.40
2018-12-18T02:25:24.337Z,-0.40
2018-12-18T02:27:51.539Z,-0.50
2018-12-18T02:30:18.819Z,-0.60
2018-12-18T02:32:46.046Z,-0.60
2018-12-18T02:35:13.390Z,-0.70
2018-12-18T02:37:40.621Z,-0.70
2018-12-18T02:40:08.047Z,-0.70
2018-12-18T02:42:35.270Z,-0.70
2018-12-18T02:45:02.928Z,-0.70
2018-12-18T02:47:30.133Z,-0.80
2018-12-18T02:49:57.421Z,-0.80
2018-12-18T02:52:24.766Z,-0.80
2018-12-18T02:54:51.990Z,-0.90
2018-12-18T02:57:19.192Z,-1.00
2018-12-18T02:59:46.667Z,-1.00
2018-12-18T03:02:14.215Z,-1.00
2018-12-18T03:04:41.578Z,-1.10
2018-12-18T03:07:08.940Z,-1.10
2018-12-18T03:09:36.172Z,-1.10
2018-12-18T03:12:03.640Z,-1.10
2018-12-18T03:14:31.041Z,-1.10
2018-12-18T03:16:58.374Z,-1.20
2018-12-18T03:19:25.588Z,-1.30
2018-12-18T03:21:52.941Z,-1.20
2018-12-18T03:24:20.155Z,-1.20
2018-12-18T03:26:47.396Z,-1.10
2018-12-18T03:29:14.752Z,-1.00
2018-12-18T03:31:45.210Z,-0.90
2018-12-18T03:34:12.402Z,-0.90
2018-12-18T03:36:39.653Z,-0.80
2018-12-18T03:39:06.840Z,-0.70
2018-12-18T03:41:34.181Z,-0.60
2018-12-18T03:44:01.423Z,-0.50
2018-12-18T03:46:28.633Z,-0.40
2018-12-18T03:48:55.856Z,-0.40
2018-12-18T03:51:23.116Z,-0.40
2018-12-18T03:53:50.351Z,-0.30
2018-12-18T03:56:17.560Z,-0.30
2018-12-18T03:58:44.826Z,-0.30
2018-12-18T04:01:12.126Z,-0.20
2018-12-18T04:03:39.341Z,-0.20
2018-12-18T04:06:06.621Z,-0.30
2018-12-18T04:08:33.841Z,-0.30
2018-12-18T04:11:01.178Z,-0.30
2018-12-18T04:13:28.532Z,-0.40
2018-12-18T04:15:55.751Z,-0.40
2018-12-18T04:18:22.975Z,-0.40
2018-12-18T04:20:50.232Z,-0.40
2018-12-18T04:23:17.545Z,-0.50
2018-12-18T04:25:44.766Z,-0.40
2018-12-18T04:28:12.002Z,-0.40
2018-12-18T04:30:39.291Z,-0.40
2018-12-18T04:33:06.505Z,-0.30
2018-12-18T04:35:33.731Z,-0.20
2018-12-18T04:38:00.958Z,-0.10
2018-12-18T04:40:28.192Z,-0.10
2018-12-18T04:42:55.450Z,0.00
2018-12-18T04:45:22.696Z,0.10
2018-12-18T04:47:49.900Z,0.10
2018-12-18T04:50:17.142Z,0.20
2018-12-18T04:52:44.478Z,0.20
2018-12-18T04:55:11.794Z,0.20
2018-12-18T04:57:39.184Z,0.20
2018-12-18T05:00:07.733Z,0.20
2018-12-18T05:02:34.928Z,0.30
2018-12-18T05:05:02.280Z,0.30
2018-12-18T05:07:29.523Z,0.30
2018-12-18T05:09:56.722Z,0.40
2018-12-18T05:12:23.949Z,0.40
2018-12-18T05:14:51.278Z,0.40
2018-12-18T05:17:18.505Z,0.40
2018-12-18T05:19:45.788Z,0.40
2018-12-18T05:22:13.118Z,0.40
2018-12-18T05:24:40.332Z,0.50
2018-12-18T05:27:07.573Z,0.40
2018-12-18T05:29:34.761Z,0.50
2018-12-18T05:32:01.953Z,0.50
2018-12-18T05:34:29.181Z,0.50
2018-12-18T05:36:56.397Z,0.50
2018-12-18T05:39:23.604Z,0.50
2018-12-18T05:41:50.854Z,0.50
2018-12-18T05:44:18.076Z,0.50
2018-12-18T05:46:45.289Z,0.50
2018-12-18T05:49:12.645Z,0.50
2018-12-18T05:51:39.849Z,0.50
2018-12-18T05:54:07.066Z,0.50
2018-12-18T05:56:34.309Z,0.60
2018-12-18T05:59:01.674Z,0.60
2018-12-18T06:01:28.890Z,0.60
2018-12-18T06:03:56.165Z,0.60
2018-12-18T06:06:23.381Z,0.70
2018-12-18T06:08:50.581Z,0.60
2018-12-18T06:11:17.821Z,0.70
2018-12-18T06:13:45.025Z,0.70
2018-12-18T06:16:12.245Z,0.70
2018-12-18T06:18:39.491Z,0.70
2018-12-18T06:21:06.724Z,0.70
2018-12-18T06:23:33.981Z,0.70
2018-12-18T06:26:01.216Z,0.70
2018-12-18T06:28:28.420Z,0.70
2018-12-18T06:30:55.635Z,0.70
2018-12-18T06:33:22.898Z,0.70
2018-12-18T06:35:50.147Z,0.70
2018-12-18T06:38:17.499Z,0.70
2018-12-18T06:40:44.828Z,0.70
2018-12-18T06:43:12.136Z,0.70
2018-12-18T06:45:39.329Z,0.70
2018-12-18T06:48:06.581Z,0.70
2018-12-18T06:50:33.825Z,0.70
2018-12-18T06:53:01.037Z,0.70
2018-12-18T06:55:28.322Z,0.70
2018-12-18T06:57:55.544Z,0.70
2018-12-18T07:00:22.739Z,0.70
2018-12-18T07:02:49.966Z,0.70
2018-12-18T07:05:17.244Z,0.70
2018-12-18T07:07:44.953Z,0.70
2018-12-18T07:10:12.309Z,0.70
2018-12-18T07:12:39.534Z,0.70
2018-12-18T07:15:06.784Z,0.70
2018-12-18T07:17:34.025Z,0.70
2018-12-18T07:20:01.281Z,0.70
2018-12-18T07:22:28.485Z,0.70
2018-12-18T07:24:55.764Z,0.70
2018-12-18T07:27:22.956Z,0.80
2018-12-18T07:29:50.325Z,0.80
2018-12-18T07:32:17.574Z,0.80
2018-12-18T07:34:44.824Z,0.80
2018-12-18T07:37:12.185Z,0.80
2018-12-18T07:39:39.455Z,0.80
2018-12-18T07:42:06.787Z,0.80
2018-12-18T07:44:34.202Z,0.90
2018-12-18T07:47:01.553Z,0.90
2018-12-18T07:49:28.749Z,0.90
2018-12-18T07:51:55.950Z,0.90
2018-12-18T07:54:23.213Z,0.90
2018-12-18T07:56:50.429Z,0.90
2018-12-18T07:59:17.643Z,0.90
2018-12-18T08:01:45.184Z,0.90
2018-12-18T08:04:12.380Z,0.90
2018-12-18T08:06:39.593Z,0.90
2018-12-18T08:09:07.329Z,0.90
2018-12-18T08:11:34.549Z,0.90
2018-12-18T08:14:01.848Z,0.90
2018-12-18T08:16:29.119Z,1.00
2018-12-18T08:18:56.325Z,1.00
2018-12-18T08:21:23.689Z,1.00
2018-12-18T08:23:50.973Z,1.00
2018-12-18T08:26:18.346Z,1.00
2018-12-18T08:28:45.524Z,1.00
2018-12-18T08:31:12.793Z,1.00
2018-12-18T08:33:40.097Z,1.00
2018-12-18T08:36:07.304Z,1.10
2018-12-18T08:38:34.736Z,1.20
2018-12-18T08:41:01.944Z,1.20
2018-12-18T08:43:29.145Z,1.20
2018-12-18T08:45:56.407Z,1.30
2018-12-18T08:48:23.657Z,1.30
2018-12-18T08:50:50.907Z,1.30
2018-12-18T08:53:18.133Z,1.30
2018-12-18T08:55:45.337Z,1.40
2018-12-18T08:58:12.557Z,1.40
2018-12-18T09:00:39.792Z,1.50
2018-12-18T09:03:07.005Z,1.50
2018-12-18T09:05:34.213Z,1.50
2018-12-18T09:08:01.477Z,1.60
2018-12-18T09:10:28.678Z,1.60
2018-12-18T09:12:55.885Z,1.70
2018-12-18T09:15:29.049Z,1.70
2018-12-18T09:17:56.288Z,1.70
2018-12-18T09:20:23.537Z,1.70
2018-12-18T09:22:50.977Z,1.70
2018-12-18T09:25:18.206Z,1.70
2018-12-18T09:27:45.426Z,1.80
2018-12-18T09:30:12.703Z,1.80
2018-12-18T09:32:39.909Z,1.80
2018-12-18T09:35:07.274Z,1.80
2018-12-18T09:37:34.638Z,1.90
2018-12-18T09:40:01.838Z,1.90
2018-12-18T09:42:34.890Z,1.90
2018-12-18T09:45:02.308Z,1.90
2018-12-18T09:47:29.528Z,1.90
2018-12-18T09:49:56.800Z,1.90
2018-12-18T09:52:24.112Z,1.90
2018-12-18T09:54:51.331Z,1.90
2018-12-18T09:57:24.429Z,1.90
2018-12-18T09:59:51.726Z,1.90
2018-12-18T10:02:18.934Z,1.90
2018-12-18T10:04:46.171Z,1.90
2018-12-18T10:07:13.404Z,1.90
2018-12-18T10:09:40.593Z,1.90
2018-12-18T10:12:07.841Z,1.90
2018-12-18T10:14:35.205Z,1.90
2018-12-18T10:17:02.474Z,1.90
2018-12-18T10:19:29.709Z,1.90
2018-12-18T10:21:56.882Z,2.00
2018-12-18T10:24:24.092Z,2.00
2018-12-18T10:26:51.377Z,2.00
2018-12-18T10:29:18.565Z,2.00
2018-12-18T10:31:45.760Z,2.00
2018-12-18T10:34:13.110Z,2.00
2018-12-18T10:36:40.310Z,2.00
2018-12-18T10:39:07.617Z,2.00
2018-12-18T10:41:34.985Z,2.10
2018-12-18T10:44:02.372Z,2.10
2018-12-18T10:46:29.589Z,2.10
2018-12-18T10:48:56.792Z,2.10
2018-12-18T10:51:24.085Z,2.10
2018-12-18T10:53:51.313Z,2.10
2018-12-18T10:56:18.561Z,2.20
2018-12-18T10:58:45.803Z,2.20
2018-12-18T11:01:13.364Z,2.20
2018-12-18T11:03:40.627Z,2.20
2018-12-18T11:06:10.007Z,2.20
2018-12-18T11:08:37.237Z,2.20
2018-12-18T11:11:04.675Z,2.20
2018-12-18T11:13:31.877Z,2.20
2018-12-18T11:15:59.190Z,2.20
2018-12-18T11:18:26.435Z,2.30
2018-12-18T11:20:53.630Z,2.30
2018-12-18T11:23:20.858Z,2.40
2018-12-18T11:25:48.101Z,2.50
2018-12-18T11:28:15.444Z,2.60
2018-12-18T11:30:42.633Z,2.60
2018-12-18T11:33:09.892Z,2.70
2018-12-18T11:35:37.149Z,2.70
2018-12-18T11:38:04.343Z,2.70
2018-12-18T11:40:31.549Z,2.70
2018-12-18T11:42:58.757Z,2.60
2018-12-18T11:45:26.048Z,2.60
2018-12-18T11:47:53.327Z,2.70
2018-12-18T11:50:20.551Z,2.60
2018-12-18T11:52:47.749Z,2.70
2018-12-18T11:55:15.017Z,2.60
2018-12-18T11:57:42.340Z,2.70
2018-12-18T12:00:12.112Z,2.70
2018-12-18T12:02:42.792Z,2.70
2018-12-18T12:05:08.737Z,2.70
2018-12-18T12:07:35.951Z,2.70
2018-12-18T12:10:04.173Z,2.70
2018-12-18T12:12:31.500Z,2.70
2018-12-18T12:14:58.844Z,2.70
2018-12-18T12:17:26.504Z,2.80
2018-12-18T12:19:53.708Z,2.70
2018-12-18T12:22:20.943Z,2.70
2018-12-18T12:24:48.149Z,2.70
2018-12-18T12:27:21.284Z,2.70
2018-12-18T12:29:48.530Z,2.70
2018-12-18T12:32:15.781Z,2.70
2018-12-18T12:34:43.030Z,2.70
2018-12-18T12:37:10.276Z,2.60
2018-12-18T12:39:37.488Z,2.70
2018-12-18T12:42:04.726Z,2.60
2018-12-18T12:44:32.092Z,2.60
2018-12-18T12:46:59.310Z,2.70
2018-12-18T12:49:32.373Z,2.70
2018-12-18T12:51:59.582Z,2.70
2018-12-18T12:54:26.798Z,2.80
2018-12-18T12:56:54.356Z,2.80
2018-12-18T12:59:21.596Z,2.70
2018-12-18T13:01:48.822Z,2.80
2018-12-18T13:04:16.118Z,2.80
2018-12-18T13:06:43.353Z,2.80
2018-12-18T13:09:10.789Z,2.70
2018-12-18T13:11:38.056Z,2.80
2018-12-18T13:14:05.363Z,2.80
2018-12-18T13:16:32.592Z,2.80
2018-12-18T13:18:59.826Z,2.80
2018-12-18T13:21:27.030Z,2.80
2018-12-18T13:23:54.479Z,2.80
2018-12-18T13:26:21.869Z,2.80
2018-12-18T13:28:49.108Z,2.80
2018-12-18T13:31:16.334Z,2.80
2018-12-18T13:33:43.585Z,2.70
2018-12-18T13:36:10.935Z,2.70
2018-12-18T13:38:38.308Z,2.70
2018-12-18T13:41:05.544Z,2.70
2018-12-18T13:43:32.770Z,2.60
2018-12-18T13:45:59.986Z,2.60
2018-12-18T13:48:27.236Z,2.60
2018-12-18T13:50:54.481Z,2.60
2018-12-18T13:53:21.793Z,2.60
2018-12-18T13:55:49.029Z,2.60
2018-12-18T13:58:16.360Z,2.60
2018-12-18T14:00:43.687Z,2.60
2018-12-18T14:03:10.913Z,2.60
2018-12-18T14:05:38.099Z,2.70
2018-12-18T14:08:05.283Z,2.70
2018-12-18T14:10:32.689Z,2.60
2018-12-18T14:12:59.893Z,2.60
2018-12-18T14:15:27.221Z,2.70
2018-12-18T14:17:54.703Z,2.60
2018-12-18T14:20:22.032Z,2.70
2018-12-18T14:22:49.250Z,2.70
2018-12-18T14:25:16.521Z,2.70
2018-12-18T14:27:43.724Z,2.70
2018-12-18T14:30:11.164Z,2.60
2018-12-18T14:32:38.563Z,2.60
2018-12-18T14:35:05.884Z,2.60
2018-12-18T14:37:33.087Z,2.60
2018-12-18T14:40:00.328Z,2.60
2018-12-18T14:42:27.521Z,2.50
2018-12-18T14:44:54.716Z,2.50
2018-12-18T14:47:22.128Z,2.50
2018-12-18T14:49:49.480Z,2.50
2018-12-18T14:52:16.694Z,2.50
2018-12-18T14:54:44.025Z,2.60
2018-12-18T14:57:11.201Z,2.60
2018-12-18T14:59:38.625Z,2.60
2018-12-18T15:02:06.067Z,2.60
2018-12-18T15:04:33.263Z,2.60
2018-12-18T15:07:03.073Z,2.70
2018-12-18T15:09:29.715Z,2.70
2018-12-18T15:11:57.049Z,2.60
2018-12-18T15:14:24.257Z,2.70
2018-12-18T15:16:51.488Z,2.70
2018-12-18T15:19:18.705Z,2.70
2018-12-18T15:21:45.924Z,2.70
2018-12-18T15:24:13.169Z,2.70
2018-12-18T15:26:40.495Z,2.70
2018-12-18T15:29:07.717Z,2.70
2018-12-18T15:31:35.000Z,2.70
2018-12-18T15:34:02.271Z,2.70
2018-12-18T15:36:29.493Z,2.70
2018-12-18T15:38:56.972Z,2.70
2018-12-18T15:41:24.156Z,2.70
2018-12-18T15:43:51.373Z,2.70
2018-12-18T15:46:18.594Z,2.80
2018-12-18T15:48:45.798Z,2.80
2018-12-18T15:51:12.998Z,2.80
2018-12-18T15:53:40.248Z,2.70
2018-12-18T15:56:07.437Z,2.70
2018-12-18T15:58:34.651Z,2.70
2018-12-18T16:01:02.005Z,2.70
2018-12-18T16:03:29.226Z,2.80
2018-12-18T16:05:56.405Z,2.70
2018-12-18T16:08:23.679Z,2.70
2018-12-18T16:10:50.924Z,2.70
2018-12-18T16:13:18.137Z,2.70
2018-12-18T16:15:45.345Z,2.70
2018-12-18T16:18:12.553Z,2.70
2018-12-18T16:20:39.761Z,2.70
2018-12-18T16:23:07.070Z,2.70
2018-12-18T16:25:34.393Z,2.80
2018-12-18T16:28:01.637Z,2.70
2018-12-18T16:30:28.889Z,2.70
2018-12-18T16:32:56.106Z,2.70
2018-12-18T16:35:23.309Z,2.80
2018-12-18T16:37:50.564Z,2.70
2018-12-18T16:40:17.803Z,2.70
2018-12-18T16:42:45.018Z,2.80
2018-12-18T16:45:12.379Z,2.80
2018-12-18T16:47:39.568Z,2.80
2018-12-18T16:50:06.869Z,2.80
2018-12-18T16:52:34.104Z,2.80
2018-12-18T16:55:01.461Z,2.90
2018-12-18T16:57:28.791Z,2.90
2018-12-18T16:59:56.036Z,2.90
2018-12-18T17:02:23.529Z,2.90
2018-12-18T17:04:50.872Z,2.90
2018-12-18T17:07:18.128Z,2.90
2018-12-18T17:09:45.329Z,2.90
2018-12-18T17:12:12.548Z,2.90
2018-12-18T17:14:39.789Z,2.90
2018-12-18T17:17:07.033Z,2.90
2018-12-18T17:19:34.241Z,2.90
2018-12-18T17:22:01.467Z,2.90
2018-12-18T17:24:28.719Z,2.90
2018-12-18T17:26:55.926Z,2.90
2018-12-18T17:29:23.374Z,2.90
2018-12-18T17:31:50.577Z,2.90
2018-12-18T17:34:17.874Z,3.00
2018-12-18T17:36:45.125Z,3.00
2018-12-18T17:39:12.344Z,3.00
2018-12-18T17:41:39.565Z,3.00
2018-12-18T17:44:06.801Z,3.00
2018-12-18T17:46:34.018Z,3.00
2018-12-18T17:49:01.212Z,3.00
2018-12-18T17:51:28.444Z,3.00
2018-12-18T17:53:55.675Z,3.00
2018-12-18T17:56:23.027Z,3.00
2018-12-18T17:58:50.293Z,3.00
2018-12-18T18:01:17.745Z,3.00
2018-12-18T18:03:44.969Z,3.00
2018-12-18T18:06:12.246Z,3.00
2018-12-18T18:08:39.474Z,3.00
2018-12-18T18:11:06.713Z,3.00
2018-12-18T18:13:33.977Z,3.00
2018-12-18T18:16:01.296Z,3.00
2018-12-18T18:18:28.478Z,3.00
2018-12-18T18:20:55.735Z,2.90
2018-12-18T18:23:22.968Z,2.90
2018-12-18T18:25:51.049Z,3.00
2018-12-18T18:28:18.297Z,3.00
2018-12-18T18:30:45.649Z,2.90
2018-12-18T18:33:12.918Z,2.90
2018-12-18T18:35:40.234Z,2.90
2018-12-18T18:38:07.545Z,2.90
2018-12-18T18:40:34.758Z,2.90
2018-12-18T18:43:01.969Z,2.90
2018-12-18T18:45:29.181Z,2.90
2018-12-18T18:47:56.392Z,2.90
2018-12-18T18:50:23.628Z,2.90
2018-12-18T18:52:50.853Z,3.00
2018-12-18T18:55:19.107Z,2.90
2018-12-18T18:57:46.345Z,2.90
2018-12-18T19:00:13.896Z,2.90
2018-12-18T19:02:41.122Z,3.00
2018-12-18T19:05:08.376Z,3.00
2018-12-18T19:07:35.597Z,3.10
2018-12-18T19:10:04.069Z,3.00
2018-12-18T19:12:31.328Z,3.00
2018-12-18T19:14:58.549Z,3.00
2018-12-18T19:17:25.749Z,3.00
2018-12-18T19:19:53.224Z,3.00
2018-12-18T19:22:20.509Z,3.00
2018-12-18T19:24:47.741Z,3.10
2018-12-18T19:27:15.088Z,3.10
2018-12-18T19:29:42.306Z,3.10
2018-12-18T19:32:09.508Z,3.10
2018-12-18T19:34:36.725Z,3.10
2018-12-18T19:37:04.017Z,3.10
2018-12-18T19:39:31.407Z,3.00
2018-12-18T19:41:58.741Z,3.10
2018-12-18T19:44:25.962Z,3.00
2018-12-18T19:46:53.301Z,3.00
2018-12-18T19:49:20.638Z,3.00
2018-12-18T19:51:47.861Z,3.00
2018-12-18T19:54:15.172Z,3.10
2018-12-18T19:56:42.498Z,3.10
2018-12-18T19:59:10.914Z,3.10
2018-12-18T20:01:38.335Z,3.10
2018-12-18T20:04:05.589Z,3.10
2018-12-18T20:06:32.788Z,3.10
2018-12-18T20:09:00.080Z,3.10
2018-12-18T20:11:27.325Z,3.10
2018-12-18T20:13:54.587Z,3.10
2018-12-18T20:16:21.810Z,3.10
2018-12-18T20:18:49.835Z,3.10
2018-12-18T20:21:17.034Z,3.10
2018-12-18T20:23:44.267Z,3.10
2018-12-18T20:26:11.651Z,3.10
2018-12-18T20:28:38.842Z,3.10
2018-12-18T20:31:06.191Z,3.10
2018-12-18T20:33:33.441Z,3.10
2018-12-18T20:36:00.694Z,3.00
2018-12-18T20:38:27.921Z,3.00
2018-12-18T20:40:55.174Z,3.00
2018-12-18T20:43:22.404Z,3.00
2018-12-18T20:45:50.123Z,3.00
2018-12-18T20:48:17.371Z,3.00
2018-12-18T20:50:44.620Z,3.00
2018-12-18T20:53:11.945Z,3.00
2018-12-18T20:55:39.208Z,3.00
2018-12-18T20:58:06.393Z,3.00
2018-12-18T21:00:33.695Z,3.00
2018-12-18T21:03:00.964Z,3.00
2018-12-18T21:05:28.158Z,3.00
2018-12-18T21:07:55.718Z,3.00
2018-12-18T21:10:23.068Z,3.00
2018-12-18T21:12:50.292Z,3.00
2018-12-18T21:15:17.528Z,3.00
2018-12-18T21:17:44.777Z,3.00
2018-12-18T21:20:12.003Z,3.10
2018-12-18T21:22:39.205Z,3.10
2018-12-18T21:25:07.061Z,3.00
2018-12-18T21:27:34.261Z,3.10
2018-12-18T21:30:01.500Z,3.10
2018-12-18T21:32:28.751Z,3.10
2018-12-18T21:34:55.938Z,3.10
2018-12-18T21:37:23.156Z,3.10
2018-12-18T21:39:50.419Z,3.10
2018-12-18T21:42:17.773Z,3.10
2018-12-18T21:44:45.113Z,3.10
2018-12-18T21:47:12.348Z,3.20
2018-12-18T21:49:39.680Z,3.20
2018-12-18T21:52:06.972Z,3.20
2018-12-18T21:54:34.209Z,3.20
2018-12-18T21:57:01.457Z,3.20
2018-12-18T21:59:28.660Z,3.20
2018-12-18T22:01:55.936Z,3.20
2018-12-18T22:04:23.250Z,3.20
2018-12-18T22:06:50.477Z,3.30
2018-12-18T22:09:17.758Z,3.30
2018-12-18T22:11:44.952Z,3.30
2018-12-18T22:14:12.162Z,3.30
2018-12-18T22:16:39.427Z,3.30
2018-12-18T22:19:06.625Z,3.30
2018-12-18T22:21:33.840Z,3.40
2018-12-18T22:24:01.095Z,3.30
2018-12-18T22:26:28.317Z,3.30
2018-12-18T22:28:55.503Z,3.30
2018-12-18T22:31:22.786Z,3.30
2018-12-18T22:33:50.022Z,3.30
2018-12-18T22:36:17.241Z,3.30
2018-12-18T22:38:44.479Z,3.40
2018-12-18T22:41:11.677Z,3.40
2018-12-18T22:43:38.865Z,3.50
2018-12-18T22:46:06.111Z,3.60
2018-12-18T22:48:33.282Z,3.60
2018-12-18T22:51:01.964Z,3.70
2018-12-18T22:53:29.353Z,3.70
2018-12-18T22:55:56.564Z,3.80
2018-12-18T22:58:23.877Z,3.80
2018-12-18T23:00:55.974Z,3.80
2018-12-18T23:03:23.660Z,3.80
2018-12-18T23:05:50.949Z,3.80
2018-12-18T23:08:18.262Z,3.80
2018-12-18T23:10:45.516Z,3.80
2018-12-18T23:13:18.409Z,3.80
2018-12-18T23:15:47.393Z,3.90
2018-12-18T23:18:14.647Z,3.90
2018-12-18T23:20:41.985Z,3.80
2018-12-18T23:23:09.205Z,3.80
2018-12-18T23:25:36.515Z,3.90
2018-12-18T23:28:03.774Z,3.90
2018-12-18T23:30:31.031Z,3.90
2018-12-18T23:32:58.260Z,3.90
2018-12-18T23:35:25.550Z,3.90
2018-12-18T23:37:52.777Z,3.90
2018-12-18T23:40:19.993Z,3.90
2018-12-18T23:42:47.376Z,3.90
2018-12-18T23:45:14.581Z,3.90
2018-12-18T23:47:41.766Z,3.90
2018-12-18T23:50:08.997Z,4.00
2018-12-18T23:52:36.272Z,4.00
2018-12-18T23:55:04.011Z,4.00
2018-12-18T23:57:31.294Z,4.00
2018-12-18T23:59:58.526Z,3.90
